Time;durP1;ratioP1;P1;durP2;ratioP2;P2;SDS_P1;SDS_P2;PMS_P1;PMS_P2;Temp;Humidity;BMP_temperature;BMP_pressure;BME280_temperature;BME280_humidity;BME280_pressure;Samples;Min_cycle;Max_cycle;Signal;HPM_P1;HPM_P2
2023/03/29 00:00:58;;;;;;;3.00;1.40;;;13.40;99.90;;;;;;4954026;28;20039;-93
2023/03/29 00:03:25;;;;;;;4.13;2.00;;;13.40;99.90;;;;;;4953377;28;20500;-93
2023/03/29 00:05:56;;;;;;;4.43;1.55;;;13.40;99.90;;;;;;4954368;28;20030;-92
2023/03/29 00:08:22;;;;;;;5.65;1.73;;;13.30;99.90;;;;;;4954061;29;20027;-93
2023/03/29 00:10:48;;;;;;;3.03;1.33;;;13.30;99.90;;;;;;4954423;28;20036;-93
2023/03/29 00:13:14;;;;;;;3.95;1.50;;;13.20;99.90;;;;;;4953032;28;20039;-93
2023/03/29 00:15:40;;;;;;;3.22;1.40;;;13.10;99.90;;;;;;4954677;28;20517;-93
2023/03/29 00:18:06;;;;;;;3.80;1.67;;;13.10;99.90;;;;;;4953537;29;20053;-94
2023/03/29 00:20:32;;;;;;;2.88;1.70;;;13.10;99.90;;;;;;4953432;28;20070;-94
2023/03/29 00:22:57;;;;;;;4.45;1.70;;;13.10;99.90;;;;;;4953183;28;20099;-93
2023/03/29 00:25:23;;;;;;;6.13;1.90;;;13.20;99.90;;;;;;4953095;29;20047;-94
2023/03/29 00:27:49;;;;;;;7.03;1.90;;;13.20;99.90;;;;;;4954105;28;20092;-94
2023/03/29 00:30:15;;;;;;;3.95;1.60;;;13.20;99.90;;;;;;4954016;28;20031;-93
2023/03/29 00:32:41;;;;;;;2.40;1.40;;;13.20;99.90;;;;;;4953727;28;20055;-92
2023/03/29 00:35:07;;;;;;;2.50;1.70;;;13.20;99.90;;;;;;4954134;29;20125;-92
2023/03/29 00:37:33;;;;;;;4.63;1.60;;;13.20;99.90;;;;;;4953544;29;20177;-91
2023/03/29 00:39:59;;;;;;;2.72;1.50;;;13.20;99.90;;;;;;4954078;28;20493;-92
2023/03/29 00:42:25;;;;;;;3.60;1.52;;;13.20;99.90;;;;;;4954077;28;20248;-94
2023/03/29 00:45:11;;;;;;;3.40;1.60;;;13.10;99.90;;;;;;4951830;28;20032;-93
2023/03/29 00:47:40;;;;;;;6.38;1.70;;;13.10;99.90;;;;;;4953878;28;20035;-92
2023/03/29 00:50:11;;;;;;;2.58;1.50;;;13.00;99.90;;;;;;4952931;28;20045;-93
2023/03/29 00:52:40;;;;;;;2.88;1.52;;;13.10;99.90;;;;;;4953293;28;20042;-93
2023/03/29 00:55:12;;;;;;;3.70;2.00;;;13.20;99.90;;;;;;4953790;28;20128;-92
2023/03/29 00:57:42;;;;;;;5.32;1.50;;;13.20;99.90;;;;;;4953644;28;20154;-92
2023/03/29 01:00:09;;;;;;;2.50;1.60;;;13.20;99.90;;;;;;4953469;28;20535;-93
2023/03/29 01:02:38;;;;;;;5.13;1.80;;;13.20;99.90;;;;;;4952841;28;20109;-92
2023/03/29 01:05:10;;;;;;;5.50;1.77;;;13.10;99.90;;;;;;4953400;28;20034;-92
2023/03/29 01:07:46;;;;;;;4.57;1.55;;;13.00;99.90;;;;;;4953604;28;20028;-93
2023/03/29 01:10:45;;;;;;;3.38;1.80;;;13.00;99.90;;;;;;4934562;28;20036;-93
2023/03/29 01:13:19;;;;;;;2.85;1.58;;;13.00;99.90;;;;;;4958911;28;20070;-92
2023/03/29 01:15:46;;;;;;;6.10;2.17;;;12.90;99.90;;;;;;4970301;28;20046;-92
2023/03/29 01:18:12;;;;;;;4.53;1.60;;;12.80;99.90;;;;;;4970487;28;20054;-93
2023/03/29 01:21:03;;;;;;;2.65;1.40;;;12.70;99.90;;;;;;4970061;28;20805;-93
2023/03/29 01:23:38;;;;;;;3.40;1.73;;;12.70;99.90;;;;;;4970686;28;20038;-92
2023/03/29 01:26:16;;;;;;;3.15;1.50;;;12.60;99.90;;;;;;4970259;28;20497;-92
2023/03/29 01:28:50;;;;;;;3.30;1.67;;;12.50;99.90;;;;;;4969401;28;20038;-92
2023/03/29 01:31:24;;;;;;;4.35;1.60;;;12.50;99.90;;;;;;4970091;28;20824;-93
2023/03/29 01:33:57;;;;;;;3.78;1.90;;;12.50;99.90;;;;;;4970340;28;20039;-93
2023/03/29 01:36:48;;;;;;;5.13;1.83;;;12.50;99.90;;;;;;4969559;28;20055;-93
2023/03/29 01:39:14;;;;;;;2.88;1.52;;;12.50;99.90;;;;;;4970190;28;20385;-93
2023/03/29 01:42:01;;;;;;;5.72;1.90;;;12.50;99.90;;;;;;4970478;28;20035;-93
2023/03/29 01:45:06;;;;;;;4.13;1.50;;;12.40;99.90;;;;;;4969845;28;20045;-93
2023/03/29 01:47:41;;;;;;;7.75;1.67;;;12.30;99.90;;;;;;4912688;29;20473;-92
2023/03/29 01:50:18;;;;;;;2.53;1.30;;;12.20;99.90;;;;;;4902246;29;20531;-93
2023/03/29 01:52:58;;;;;;;6.57;2.03;;;12.10;99.90;;;;;;4893464;29;20418;-93
2023/03/29 01:55:34;;;;;;;4.85;1.95;;;12.10;99.90;;;;;;4893407;28;20045;-93
2023/03/29 01:58:03;;;;;;;3.17;1.60;;;12.10;99.90;;;;;;4894271;28;20028;-93
2023/03/29 02:00:33;;;;;;;5.70;1.83;;;12.10;99.90;;;;;;4892295;29;20037;-92
2023/03/29 02:03:05;;;;;;;2.80;1.70;;;12.10;99.90;;;;;;4893901;29;20031;-93
2023/03/29 02:05:32;;;;;;;4.70;1.50;;;12.10;99.90;;;;;;4893987;28;20041;-93
2023/03/29 02:08:00;;;;;;;3.58;1.67;;;12.20;99.90;;;;;;4894194;28;20028;-93
2023/03/29 02:10:26;;;;;;;5.60;1.77;;;12.20;99.90;;;;;;4893635;29;20068;-91
2023/03/29 02:12:52;;;;;;;4.80;1.80;;;12.30;99.90;;;;;;4891931;28;20033;-93
2023/03/29 02:15:19;;;;;;;7.70;2.05;;;12.20;99.90;;;;;;4893621;28;20040;-93
2023/03/29 02:17:46;;;;;;;5.53;1.92;;;12.10;99.90;;;;;;4893366;28;20072;-93
2023/03/29 02:20:28;;;;;;;4.32;1.80;;;12.20;99.90;;;;;;4893058;28;20576;-92
2023/03/29 02:23:07;;;;;;;6.97;1.85;;;12.20;99.90;;;;;;4891352;29;20128;-93
2023/03/29 02:25:33;;;;;;;3.25;1.83;;;12.20;99.90;;;;;;4947466;28;20051;-93
2023/03/29 02:28:00;;;;;;;6.05;1.77;;;12.20;99.90;;;;;;4952172;28;20028;-93
2023/03/29 02:30:40;;;;;;;2.55;1.60;;;12.20;99.90;;;;;;4952699;28;20032;-94
2023/03/29 02:33:15;;;;;;;5.18;1.83;;;12.20;99.90;;;;;;4952437;28;20534;-93
2023/03/29 02:35:52;;;;;;;4.35;1.50;;;12.20;99.90;;;;;;4952477;28;20050;-93
2023/03/29 02:38:18;;;;;;;3.70;1.50;;;12.10;99.90;;;;;;4952787;28;20020;-93
2023/03/29 02:40:45;;;;;;;4.03;1.65;;;12.10;99.90;;;;;;4952779;28;20054;-93
2023/03/29 02:43:13;;;;;;;2.60;1.63;;;12.20;99.90;;;;;;4952086;28;20019;-93
2023/03/29 02:45:40;;;;;;;3.70;1.77;;;12.20;99.90;;;;;;4952171;28;20055;-94
2023/03/29 02:48:08;;;;;;;3.90;1.65;;;12.30;99.90;;;;;;4952582;28;20031;-93
2023/03/29 02:50:38;;;;;;;2.65;1.77;;;12.20;99.90;;;;;;4952576;28;20027;-93
2023/03/29 02:53:10;;;;;;;2.50;1.73;;;12.30;99.90;;;;;;4951812;28;20051;-93
2023/03/29 02:55:37;;;;;;;1.92;1.70;;;12.30;99.90;;;;;;4951992;28;20043;-93
2023/03/29 02:58:07;;;;;;;2.42;1.77;;;12.30;99.90;;;;;;4951539;28;20026;-94
2023/03/29 03:00:38;;;;;;;3.50;1.83;;;12.30;99.90;;;;;;4950874;29;20089;-94
2023/03/29 03:03:06;;;;;;;4.05;1.50;;;12.30;99.90;;;;;;4951601;28;20027;-93
2023/03/29 03:05:32;;;;;;;4.50;1.60;;;12.40;99.90;;;;;;4951833;28;20037;-94
2023/03/29 03:07:58;;;;;;;3.72;1.85;;;12.50;99.90;;;;;;4953115;28;20027;-93
2023/03/29 03:10:24;;;;;;;2.83;1.80;;;12.40;99.90;;;;;;4955377;28;20019;-94
2023/03/29 03:12:49;;;;;;;4.03;1.80;;;12.50;99.90;;;;;;4955011;28;20023;-93
2023/03/29 03:15:15;;;;;;;6.28;1.85;;;12.30;99.90;;;;;;4955480;28;20034;-92
2023/03/29 03:17:41;;;;;;;3.40;1.92;;;12.40;99.90;;;;;;4955043;28;20027;-94
2023/03/29 03:20:12;;;;;;;3.63;1.52;;;12.40;99.90;;;;;;4955273;28;20034;-94
2023/03/29 03:22:47;;;;;;;4.53;1.90;;;12.40;99.90;;;;;;4951737;28;20027;-93
2023/03/29 03:25:19;;;;;;;3.75;1.40;;;12.40;99.90;;;;;;4935754;29;20063;-88
2023/03/29 03:27:45;;;;;;;3.50;1.77;;;12.30;99.90;;;;;;4936384;28;20039;-93
2023/03/29 03:30:12;;;;;;;3.45;1.60;;;12.30;99.90;;;;;;4952813;29;20042;-93
2023/03/29 03:32:37;;;;;;;3.95;1.77;;;12.20;99.90;;;;;;4954847;28;20054;-93
2023/03/29 03:35:04;;;;;;;3.00;1.58;;;12.20;99.90;;;;;;4955099;28;20031;-93
2023/03/29 03:37:30;;;;;;;3.90;1.70;;;12.20;99.90;;;;;;4954795;28;20480;-93
2023/03/29 03:39:56;;;;;;;2.63;1.67;;;12.20;99.90;;;;;;4954878;28;20023;-92
2023/03/29 03:42:22;;;;;;;3.70;1.77;;;12.20;99.90;;;;;;4938155;28;20039;-93
2023/03/29 03:44:48;;;;;;;4.50;1.63;;;12.20;99.90;;;;;;4939057;29;20023;-94
2023/03/29 03:47:14;;;;;;;3.25;1.60;;;12.20;99.90;;;;;;4955026;28;20030;-92
2023/03/29 03:49:40;;;;;;;4.70;1.58;;;12.20;99.90;;;;;;4955071;28;20028;-93
2023/03/29 03:52:06;;;;;;;5.78;1.52;;;12.30;99.90;;;;;;4954970;28;20023;-93
2023/03/29 03:54:33;;;;;;;3.10;1.40;;;12.20;99.90;;;;;;4954456;28;20161;-93
2023/03/29 03:56:58;;;;;;;5.43;1.88;;;12.20;99.90;;;;;;4955004;28;20039;-93
2023/03/29 03:59:24;;;;;;;3.75;1.88;;;12.20;99.90;;;;;;4953585;28;20023;-93
2023/03/29 04:01:50;;;;;;;2.80;1.73;;;12.30;99.90;;;;;;4953897;28;20027;-94
2023/03/29 04:04:16;;;;;;;5.18;1.65;;;12.30;99.90;;;;;;4953510;28;20015;-93
2023/03/29 04:06:42;;;;;;;4.55;1.50;;;12.30;99.90;;;;;;4954183;28;20035;-93
2023/03/29 04:09:08;;;;;;;3.53;1.73;;;12.30;99.90;;;;;;4953797;29;20471;-94
2023/03/29 04:11:35;;;;;;;3.40;1.67;;;12.20;99.90;;;;;;4953646;28;20039;-93
2023/03/29 04:14:01;;;;;;;3.10;1.60;;;12.00;99.90;;;;;;4954312;28;20469;-93
2023/03/29 04:16:27;;;;;;;6.22;1.95;;;12.00;99.90;;;;;;4954605;29;20066;-93
2023/03/29 04:18:53;;;;;;;4.60;1.75;;;11.90;99.90;;;;;;4953108;28;20444;-93
2023/03/29 04:21:19;;;;;;;4.03;1.33;;;11.90;99.90;;;;;;4953709;29;20028;-93
2023/03/29 04:23:46;;;;;;;4.90;1.60;;;12.00;99.90;;;;;;4953447;28;20074;-94
2023/03/29 04:26:13;;;;;;;4.55;1.80;;;12.00;99.90;;;;;;4953323;29;20464;-93
2023/03/29 04:28:39;;;;;;;4.20;1.58;;;12.00;99.90;;;;;;4953671;28;20031;-94
2023/03/29 04:31:12;;;;;;;3.67;1.40;;;11.90;99.90;;;;;;4954108;28;20504;-93
2023/03/29 04:33:38;;;;;;;5.18;1.75;;;12.00;99.90;;;;;;4953839;28;20032;-94
2023/03/29 04:36:04;;;;;;;5.68;1.67;;;11.90;99.90;;;;;;4954168;28;20512;-92
2023/03/29 04:38:30;;;;;;;3.15;1.67;;;11.90;99.90;;;;;;4953278;28;20034;-93
2023/03/29 04:40:57;;;;;;;4.38;1.55;;;11.90;99.90;;;;;;4953988;29;20133;-93
2023/03/29 04:43:22;;;;;;;4.53;1.58;;;11.90;99.90;;;;;;4953871;29;20489;-93
2023/03/29 04:45:48;;;;;;;4.15;1.63;;;11.90;99.90;;;;;;4953295;29;20032;-93
2023/03/29 04:48:15;;;;;;;3.50;1.75;;;11.90;99.90;;;;;;4953583;28;20034;-93
2023/03/29 04:50:44;;;;;;;3.97;1.75;;;12.00;99.90;;;;;;4954029;28;20114;-93
2023/03/29 04:53:10;;;;;;;3.75;1.40;;;12.00;99.90;;;;;;4953112;29;20034;-93
2023/03/29 04:55:36;;;;;;;3.08;1.50;;;12.10;99.90;;;;;;4953481;28;20480;-92
2023/03/29 04:58:01;;;;;;;3.58;1.55;;;12.10;99.90;;;;;;4953100;28;20039;-93
2023/03/29 05:00:27;;;;;;;2.67;1.52;;;12.00;99.90;;;;;;4951142;29;20031;-93
2023/03/29 05:02:53;;;;;;;4.50;1.60;;;12.10;99.90;;;;;;4953143;28;20050;-93
2023/03/29 05:05:19;;;;;;;5.10;1.80;;;12.00;99.90;;;;;;4953130;28;20027;-93
2023/03/29 05:07:45;;;;;;;4.63;1.80;;;12.10;99.90;;;;;;4953261;29;20058;-93
2023/03/29 05:10:11;;;;;;;5.05;1.63;;;12.10;99.90;;;;;;4953549;28;20035;-93
2023/03/29 05:12:37;;;;;;;4.43;1.90;;;12.10;99.90;;;;;;4953387;29;20020;-93
2023/03/29 05:15:07;;;;;;;4.78;1.50;;;12.10;99.90;;;;;;4953664;28;20458;-93
2023/03/29 05:17:33;;;;;;;3.15;1.45;;;12.00;99.90;;;;;;4952372;28;20023;-93
2023/03/29 05:19:59;;;;;;;5.20;1.50;;;12.10;99.90;;;;;;4952760;28;20039;-93
2023/03/29 05:22:26;;;;;;;4.80;1.60;;;12.00;99.90;;;;;;4953448;28;20035;-93
2023/03/29 05:24:52;;;;;;;4.45;1.65;;;12.00;99.90;;;;;;4953790;28;20054;-94
2023/03/29 05:27:20;;;;;;;5.30;1.98;;;11.90;99.90;;;;;;4938158;28;20493;-93
2023/03/29 05:29:46;;;;;;;3.47;1.80;;;12.00;99.90;;;;;;4934632;29;20478;-93
2023/03/29 05:32:12;;;;;;;2.60;1.63;;;12.10;99.90;;;;;;4934422;29;20016;-93
2023/03/29 05:34:38;;;;;;;4.22;1.63;;;12.00;99.90;;;;;;4932868;29;20097;-92
2023/03/29 05:37:04;;;;;;;3.70;1.88;;;12.00;99.90;;;;;;4941233;29;20485;-92
2023/03/29 05:39:32;;;;;;;5.45;1.55;;;12.00;99.90;;;;;;4953566;28;20089;-93
2023/03/29 05:41:58;;;;;;;2.95;1.40;;;12.00;99.90;;;;;;4953172;28;20066;-93
2023/03/29 05:44:24;;;;;;;4.28;1.80;;;12.10;99.90;;;;;;4953297;28;20035;-93
2023/03/29 05:46:50;;;;;;;6.45;1.73;;;12.10;99.90;;;;;;4954066;28;20145;-93
2023/03/29 05:49:16;;;;;;;3.00;1.60;;;12.20;99.90;;;;;;4952637;28;20027;-94
2023/03/29 05:51:44;;;;;;;2.55;1.58;;;12.10;99.90;;;;;;4952236;28;20478;-93
2023/03/29 05:54:10;;;;;;;5.55;1.85;;;12.10;99.90;;;;;;4952796;29;20038;-93
2023/03/29 05:56:36;;;;;;;6.18;1.92;;;12.20;99.90;;;;;;4951713;28;20521;-93
2023/03/29 05:59:02;;;;;;;7.53;1.50;;;12.20;99.90;;;;;;4952534;28;20081;-93
2023/03/29 06:01:29;;;;;;;4.85;2.05;;;12.20;99.90;;;;;;4952226;28;20031;-93
2023/03/29 06:03:56;;;;;;;5.35;1.80;;;12.10;99.90;;;;;;4952574;28;20110;-93
2023/03/29 06:06:22;;;;;;;5.72;1.77;;;12.10;99.90;;;;;;4953065;28;20023;-93
2023/03/29 06:08:47;;;;;;;5.45;1.98;;;12.20;99.90;;;;;;4952907;28;20165;-92
2023/03/29 06:11:14;;;;;;;4.95;2.00;;;12.20;99.90;;;;;;4951665;28;20032;-93
2023/03/29 06:13:40;;;;;;;3.30;1.42;;;12.30;99.90;;;;;;4951636;28;20136;-93
2023/03/29 06:16:07;;;;;;;6.93;1.70;;;12.20;99.90;;;;;;4952246;28;20070;-93
2023/03/29 06:18:33;;;;;;;6.68;1.88;;;12.30;99.90;;;;;;4952556;28;20031;-92
2023/03/29 06:21:01;;;;;;;5.85;2.05;;;12.30;99.90;;;;;;4952750;28;20023;-94
2023/03/29 06:23:28;;;;;;;5.90;1.80;;;12.30;99.90;;;;;;4951827;28;20038;-93
2023/03/29 06:25:54;;;;;;;5.68;1.80;;;12.40;99.90;;;;;;4948163;28;20054;-94
2023/03/29 06:28:20;;;;;;;5.68;1.95;;;12.40;99.90;;;;;;4951872;28;20543;-91
2023/03/29 06:30:47;;;;;;;5.25;1.88;;;12.40;99.90;;;;;;4951599;29;20426;-94
2023/03/29 06:33:13;;;;;;;7.28;2.20;;;12.40;99.90;;;;;;4952726;28;20392;-94
2023/03/29 06:35:44;;;;;;;5.35;2.45;;;12.50;99.90;;;;;;4951490;28;20039;-94
2023/03/29 06:38:10;;;;;;;4.35;1.80;;;12.70;99.90;;;;;;4952067;28;20020;-94
2023/03/29 06:40:37;;;;;;;5.47;2.00;;;12.80;99.90;;;;;;4933672;28;20460;-93
2023/03/29 06:43:03;;;;;;;5.47;1.70;;;12.90;99.90;;;;;;4933103;29;20035;-94
2023/03/29 06:45:37;;;;;;;7.97;2.90;;;12.90;99.90;;;;;;4941669;29;20059;-93
2023/03/29 06:48:05;;;;;;;6.00;1.77;;;12.90;99.90;;;;;;4952760;28;20072;-93
2023/03/29 06:50:31;;;;;;;4.70;1.52;;;13.00;99.90;;;;;;4952196;28;20070;-94
2023/03/29 06:52:57;;;;;;;7.95;1.95;;;13.10;99.90;;;;;;4952341;28;20016;-94
2023/03/29 06:55:23;;;;;;;4.80;2.13;;;13.20;99.90;;;;;;4941119;28;20035;-93
2023/03/29 06:57:49;;;;;;;6.53;2.10;;;13.40;99.90;;;;;;4933574;29;20166;-92
2023/03/29 07:00:17;;;;;;;2.83;1.70;;;13.40;99.90;;;;;;4955770;29;20074;-93
2023/03/29 07:02:44;;;;;;;3.22;1.65;;;13.30;99.90;;;;;;4954775;28;20077;-93
2023/03/29 07:05:11;;;;;;;6.50;2.10;;;13.40;99.90;;;;;;4951065;28;20039;-93
2023/03/29 07:07:59;;;;;;;4.90;2.17;;;13.40;99.90;;;;;;4950135;28;20031;-93
2023/03/29 07:10:34;;;;;;;3.70;1.50;;;13.40;99.90;;;;;;4952541;28;20031;-93
2023/03/29 07:13:00;;;;;;;2.28;1.60;;;13.40;99.90;;;;;;4950063;28;21462;-92
2023/03/29 07:15:26;;;;;;;4.43;1.80;;;13.60;99.90;;;;;;4952246;28;20046;-93
2023/03/29 07:17:53;;;;;;;2.60;1.50;;;13.50;99.90;;;;;;4952243;28;20035;-94
2023/03/29 07:20:20;;;;;;;4.40;1.77;;;13.60;99.90;;;;;;4952289;28;20093;-93
2023/03/29 07:22:47;;;;;;;4.10;1.70;;;13.70;99.90;;;;;;4952490;29;20019;-94
2023/03/29 07:25:14;;;;;;;5.05;1.70;;;13.70;99.90;;;;;;4951793;29;20096;-93
2023/03/29 07:27:41;;;;;;;2.55;1.70;;;13.70;99.90;;;;;;4951921;28;20043;-93
2023/03/29 07:30:10;;;;;;;6.13;1.90;;;13.70;99.90;;;;;;4952195;28;20344;-95
2023/03/29 07:32:40;;;;;;;4.13;1.60;;;13.50;99.90;;;;;;4951880;28;20027;-94
2023/03/29 07:35:07;;;;;;;5.95;1.90;;;13.60;99.90;;;;;;4951829;28;20390;-93
2023/03/29 07:37:36;;;;;;;3.75;1.60;;;13.60;99.90;;;;;;4952108;28;20370;-93
2023/03/29 07:40:24;;;;;;;3.33;1.55;;;13.70;99.90;;;;;;4951856;29;20027;-93
2023/03/29 07:42:52;;;;;;;8.02;1.83;;;13.80;99.90;;;;;;4952158;28;20119;-94
2023/03/29 07:45:19;;;;;;;3.33;1.55;;;14.10;99.90;;;;;;4952150;28;20042;-94
2023/03/29 07:47:48;;;;;;;6.10;1.52;;;14.30;99.90;;;;;;4951617;28;20031;-94
2023/03/29 07:50:15;;;;;;;3.88;1.70;;;14.10;99.90;;;;;;4951765;28;20505;-94
2023/03/29 07:52:42;;;;;;;4.10;1.60;;;14.30;99.90;;;;;;4951582;28;20031;-93
2023/03/29 07:55:10;;;;;;;4.93;1.83;;;14.40;99.90;;;;;;4954279;28;20043;-93
2023/03/29 07:57:36;;;;;;;4.35;1.92;;;14.60;99.90;;;;;;4954786;28;20106;-93
2023/03/29 08:00:14;;;;;;;4.38;2.03;;;14.80;99.90;;;;;;4955399;28;20062;-94
2023/03/29 08:02:44;;;;;;;5.60;2.13;;;14.90;99.90;;;;;;4954490;28;20160;-93
2023/03/29 08:05:11;;;;;;;4.60;1.70;;;14.90;99.90;;;;;;4954817;28;20111;-93
2023/03/29 08:07:39;;;;;;;5.75;1.77;;;15.00;99.90;;;;;;4954629;28;20553;-94
2023/03/29 08:10:07;;;;;;;5.05;1.52;;;15.10;99.90;;;;;;4955227;28;20106;-94
2023/03/29 08:12:33;;;;;;;3.20;1.58;;;15.30;99.90;;;;;;4954498;28;20058;-93
2023/03/29 08:14:59;;;;;;;2.70;1.40;;;15.30;99.90;;;;;;4954467;28;20063;-93
2023/03/29 08:17:25;;;;;;;3.28;1.60;;;15.40;99.90;;;;;;4954558;28;20081;-93
2023/03/29 08:19:51;;;;;;;4.35;1.50;;;15.30;99.90;;;;;;4955009;28;20029;-93
2023/03/29 08:22:16;;;;;;;5.15;1.70;;;15.60;99.90;;;;;;4954621;28;20106;-93
2023/03/29 08:24:42;;;;;;;4.38;1.60;;;15.60;99.90;;;;;;4954768;28;20028;-93
2023/03/29 08:27:08;;;;;;;2.75;1.70;;;15.70;99.90;;;;;;4940122;28;20078;-93
2023/03/29 08:29:33;;;;;;;5.28;1.48;;;15.80;99.90;;;;;;4935270;29;20040;-94
2023/03/29 08:31:59;;;;;;;4.65;1.77;;;15.90;99.90;;;;;;4935246;29;20406;-94
2023/03/29 08:34:24;;;;;;;5.63;1.65;;;16.10;99.90;;;;;;4935024;29;20500;-93
2023/03/29 08:36:51;;;;;;;4.32;1.90;;;16.40;99.90;;;;;;4935376;29;20049;-93
2023/03/29 08:39:17;;;;;;;2.42;1.25;;;16.10;99.90;;;;;;4934870;29;20577;-93
2023/03/29 08:41:42;;;;;;;3.33;1.60;;;15.80;99.90;;;;;;4935112;29;20207;-93
2023/03/29 08:44:19;;;;;;;3.53;1.33;;;15.80;99.90;;;;;;4935580;29;20024;-93
2023/03/29 08:47:02;;;;;;;5.32;1.80;;;15.90;99.90;;;;;;4953591;29;20073;-94
2023/03/29 08:49:29;;;;;;;4.03;1.80;;;15.80;99.90;;;;;;4953958;28;20136;-93
2023/03/29 08:51:59;;;;;;;3.20;1.67;;;15.90;99.90;;;;;;4954405;28;20208;-93
2023/03/29 08:54:32;;;;;;;5.47;1.77;;;15.80;99.90;;;;;;4954099;28;20042;-93
2023/03/29 08:57:31;;;;;;;2.85;1.38;;;16.10;99.90;;;;;;4954258;28;20430;-94
2023/03/29 09:00:00;;;;;;;4.32;1.70;;;16.30;99.90;;;;;;4953215;28;20124;-94
2023/03/29 09:02:30;;;;;;;4.68;2.17;;;16.70;99.90;;;;;;4954113;28;20038;-93
2023/03/29 09:05:01;;;;;;;4.40;1.65;;;17.00;99.90;;;;;;4953307;28;20034;-93
2023/03/29 09:07:26;;;;;;;2.83;1.60;;;17.20;99.90;;;;;;4953862;28;20045;-93
2023/03/29 09:09:53;;;;;;;2.38;1.45;;;17.30;99.90;;;;;;4953944;28;20042;-93
2023/03/29 09:12:23;;;;;;;3.65;1.70;;;17.20;99.90;;;;;;4954051;28;20031;-93
2023/03/29 09:14:57;;;;;;;4.28;1.90;;;17.00;99.90;;;;;;4953541;28;20134;-93
2023/03/29 09:17:23;;;;;;;3.45;1.60;;;16.90;99.90;;;;;;4953731;28;20019;-94
2023/03/29 09:20:05;;;;;;;4.55;2.20;;;16.80;99.90;;;;;;4953481;28;20038;-93
2023/03/29 09:22:56;;;;;;;5.85;2.40;;;16.80;99.90;;;;;;4953651;28;20444;-93
2023/03/29 09:25:46;;;;;;;5.15;2.30;;;16.80;99.90;;;;;;4953241;28;20513;-94
2023/03/29 09:28:12;;;;;;;3.50;2.10;;;16.60;99.90;;;;;;4953296;28;20032;-94
2023/03/29 09:30:37;;;;;;;6.05;2.05;;;16.40;99.90;;;;;;4953403;28;20039;-93
2023/03/29 09:33:24;;;;;;;3.20;2.00;;;16.10;99.90;;;;;;4953286;28;20027;-93
2023/03/29 09:35:58;;;;;;;4.38;1.80;;;15.90;99.90;;;;;;4953399;28;20396;-93
2023/03/29 09:38:23;;;;;;;4.05;1.92;;;15.90;99.90;;;;;;4953270;28;20032;-93
2023/03/29 09:41:01;;;;;;;5.38;2.72;;;15.80;99.90;;;;;;4953309;28;20037;-93
2023/03/29 09:43:34;;;;;;;3.72;1.80;;;15.80;99.90;;;;;;4953211;28;20031;-94
2023/03/29 09:46:05;;;;;;;3.88;1.85;;;15.80;99.90;;;;;;4953666;28;20031;-93
2023/03/29 09:48:37;;;;;;;3.35;2.05;;;15.90;99.90;;;;;;4953201;28;20027;-93
2023/03/29 09:51:05;;;;;;;4.45;2.20;;;16.10;99.90;;;;;;4953075;28;20031;-93
2023/03/29 09:53:31;;;;;;;4.40;1.92;;;16.20;99.90;;;;;;4953163;28;20053;-93
2023/03/29 09:55:59;;;;;;;7.32;3.38;;;16.10;99.90;;;;;;4952866;28;20809;-93
2023/03/29 09:58:27;;;;;;;3.92;2.78;;;16.30;99.90;;;;;;4953060;28;20041;-92
2023/03/29 10:00:56;;;;;;;4.88;1.90;;;16.90;99.90;;;;;;4953030;28;20519;-94
2023/03/29 10:03:28;;;;;;;3.53;1.70;;;18.10;99.90;;;;;;4952846;28;20024;-93
2023/03/29 10:05:57;;;;;;;2.67;1.70;;;19.00;99.90;;;;;;4952961;28;20344;-93
2023/03/29 10:08:27;;;;;;;5.65;1.70;;;19.90;99.90;;;;;;4953304;28;20034;-93
2023/03/29 10:10:53;;;;;;;4.28;1.92;;;19.40;99.90;;;;;;4953133;28;20087;-93
2023/03/29 10:13:31;;;;;;;3.92;1.98;;;20.40;99.90;;;;;;4952842;28;20031;-93
2023/03/29 10:16:03;;;;;;;3.92;1.52;;;19.70;99.90;;;;;;4951435;28;20051;-94
2023/03/29 10:18:30;;;;;;;3.45;1.83;;;20.40;99.90;;;;;;4951507;28;20023;-94
2023/03/29 10:21:02;;;;;;;3.90;2.10;;;21.50;99.90;;;;;;4952937;28;20027;-94
2023/03/29 10:23:33;;;;;;;2.97;1.70;;;21.10;99.90;;;;;;4952618;28;20027;-93
2023/03/29 10:26:00;;;;;;;3.88;1.83;;;20.20;99.90;;;;;;4947202;28;20050;-93
2023/03/29 10:28:26;;;;;;;3.35;1.90;;;19.40;99.90;;;;;;4933489;29;20059;-93
2023/03/29 10:30:55;;;;;;;3.05;1.77;;;18.90;99.90;;;;;;4933350;29;20035;-93
2023/03/29 10:33:25;;;;;;;3.63;1.90;;;18.70;99.90;;;;;;4933442;29;20023;-93
2023/03/29 10:35:53;;;;;;;3.85;1.88;;;20.10;99.90;;;;;;4933230;29;20517;-93
2023/03/29 10:38:23;;;;;;;5.32;1.50;;;20.20;99.90;;;;;;4933658;29;20020;-93
2023/03/29 10:40:51;;;;;;;4.78;2.13;;;20.90;99.90;;;;;;4932988;29;20032;-94
2023/03/29 10:43:28;;;;;;;4.00;1.80;;;22.30;99.90;;;;;;4933322;29;20471;-93
2023/03/29 10:46:03;;;;;;;4.10;1.80;;;21.50;99.90;;;;;;4945357;29;20070;-95
2023/03/29 10:48:30;;;;;;;7.15;1.90;;;21.00;99.90;;;;;;4952262;28;20032;-93
2023/03/29 10:51:01;;;;;;;5.00;1.70;;;19.80;99.90;;;;;;4952417;28;20031;-92
2023/03/29 10:53:32;;;;;;;2.75;1.70;;;19.40;99.90;;;;;;4952402;28;20019;-94
2023/03/29 10:56:06;;;;;;;5.13;1.80;;;19.60;99.90;;;;;;4951841;28;20035;-93
2023/03/29 10:58:41;;;;;;;3.85;1.80;;;21.30;99.90;;;;;;4952119;28;20059;-94
2023/03/29 11:01:16;;;;;;;4.10;2.00;;;22.30;99.90;;;;;;4952072;28;20031;-92
2023/03/29 11:03:50;;;;;;;4.00;1.70;;;24.00;99.90;;;;;;4952088;28;20397;-93
2023/03/29 11:06:41;;;;;;;3.25;1.70;;;25.10;99.90;;;;;;4952356;28;20024;-93
2023/03/29 11:09:42;;;;;;;5.15;1.90;;;24.90;99.90;;;;;;4951558;28;20505;-94
2023/03/29 11:12:11;;;;;;;3.85;1.80;;;25.00;99.90;;;;;;4952582;28;20028;-94
2023/03/29 11:15:13;;;;;;;5.35;2.05;;;25.80;99.90;;;;;;4951873;28;20039;-92
2023/03/29 11:17:42;;;;;;;3.72;1.75;;;25.80;99.90;;;;;;4952213;28;20517;-93
2023/03/29 11:20:26;;;;;;;3.65;1.88;;;26.00;99.90;;;;;;4952040;28;20020;-93
2023/03/29 11:23:08;;;;;;;2.63;1.73;;;26.40;99.90;;;;;;4952015;28;20106;-94
2023/03/29 11:26:04;;;;;;;2.72;1.77;;;26.80;99.90;;;;;;4950116;28;20089;-94
2023/03/29 11:28:37;;;;;;;3.30;1.90;;;27.40;99.90;;;;;;4933084;28;20069;-93
2023/03/29 11:31:12;;;;;;;2.63;1.80;;;27.20;99.90;;;;;;4936206;29;20490;-93
2023/03/29 11:34:05;;;;;;;3.70;1.55;;;27.90;99.90;;;;;;4934668;29;20039;-94
2023/03/29 11:36:39;;;;;;;3.90;1.80;;;28.50;99.90;;;;;;4936243;29;20043;-94
2023/03/29 11:39:28;;;;;;;6.15;1.98;;;29.70;99.90;;;;;;4935450;29;20055;-93
2023/03/29 11:42:03;;;;;;;4.60;1.70;;;28.00;99.90;;;;;;4935784;29;20425;-93
2023/03/29 11:44:34;;;;;;;4.32;1.90;;;28.40;99.90;;;;;;4936505;29;20494;-94
2023/03/29 11:47:19;;;;;;;4.05;1.60;;;26.80;99.90;;;;;;4954816;28;20122;-93
2023/03/29 11:49:54;;;;;;;5.82;1.95;;;27.20;99.90;;;;;;4955048;28;20028;-93
2023/03/29 11:52:27;;;;;;;5.63;2.05;;;25.30;99.90;;;;;;4954685;28;20107;-93
2023/03/29 11:54:56;;;;;;;2.95;1.80;;;26.70;99.90;;;;;;4954511;28;20398;-93
2023/03/29 11:57:28;;;;;;;3.15;1.90;;;28.80;99.90;;;;;;4954807;28;20023;-94
2023/03/29 12:00:05;;;;;;;5.35;2.08;;;28.60;99.90;;;;;;4954999;28;20093;-93
2023/03/29 12:02:35;;;;;;;6.32;2.10;;;28.40;99.90;;;;;;4954546;28;20043;-93
2023/03/29 12:05:09;;;;;;;3.75;1.80;;;30.30;99.90;;;;;;4954764;28;20031;-92
2023/03/29 12:07:41;;;;;;;3.72;1.70;;;29.80;99.90;;;;;;4954592;28;20512;-94
2023/03/29 12:10:06;;;;;;;3.20;2.03;;;29.70;99.90;;;;;;4954599;28;20047;-93
2023/03/29 12:13:01;;;;;;;4.60;1.92;;;29.00;99.90;;;;;;4954438;28;20054;-93
2023/03/29 12:15:32;;;;;;;4.22;1.70;;;30.40;99.90;;;;;;4954259;28;20047;-93
2023/03/29 12:18:05;;;;;;;4.70;1.88;;;30.20;99.90;;;;;;4954433;28;20389;-94
2023/03/29 12:20:38;;;;;;;3.55;1.80;;;29.40;99.90;;;;;;4954365;28;20036;-93
2023/03/29 12:23:06;;;;;;;6.40;2.50;;;28.80;99.90;;;;;;4954410;28;20023;-93
2023/03/29 12:25:46;;;;;;;5.68;1.90;;;28.50;99.90;;;;;;4952716;28;20051;-93
2023/03/29 12:28:36;;;;;;;5.55;2.15;;;28.70;99.90;;;;;;4934881;29;20032;-93
2023/03/29 12:31:26;;;;;;;6.45;2.00;;;27.90;99.90;;;;;;4935220;29;20031;-94
2023/03/29 12:34:06;;;;;;;4.57;1.95;;;28.00;99.90;;;;;;4935072;29;20059;-93
2023/03/29 12:36:51;;;;;;;4.43;2.05;;;27.00;99.90;;;;;;4934888;29;20074;-94
2023/03/29 12:39:19;;;;;;;4.05;1.90;;;25.80;99.90;;;;;;4935170;29;20031;-94
2023/03/29 12:41:50;;;;;;;5.93;1.80;;;27.30;99.90;;;;;;4933871;29;20023;-93
2023/03/29 12:44:19;;;;;;;2.10;1.58;;;26.20;99.90;;;;;;4934615;29;20123;-94
2023/03/29 12:46:45;;;;;;;4.53;1.77;;;25.00;99.90;;;;;;4953697;29;20382;-93
2023/03/29 12:49:23;;;;;;;4.28;1.88;;;24.60;99.90;;;;;;4953898;28;20034;-93
2023/03/29 12:51:48;;;;;;;5.95;2.10;;;24.50;99.90;;;;;;4953436;28;20059;-93
2023/03/29 12:54:21;;;;;;;3.25;1.90;;;27.30;99.90;;;;;;4954028;28;20059;-93
2023/03/29 12:56:57;;;;;;;3.95;1.73;;;28.90;99.90;;;;;;4953782;28;20497;-93
2023/03/29 12:59:44;;;;;;;3.72;1.75;;;27.50;99.90;;;;;;4953888;28;20035;-93
2023/03/29 13:02:16;;;;;;;5.85;2.15;;;27.60;99.90;;;;;;4953802;28;20485;-93
2023/03/29 13:04:42;;;;;;;4.82;1.80;;;28.80;99.90;;;;;;4953685;28;20043;-93